GENERAL EDWARD LAWRENCE LOGAN INTL

KBOS (BOS)
Boston, Massachusetts
Towered

Vatsim Metar:
KBOS 011754Z 05009KT 10SM FEW025 BKN070 OVC140 14/10 A3012 RMK AO2 SLP198 60002 T01440100 10144 20122 56014

GENERAL EDWARD LAWRENCE LOGAN INTL ATC

BOS_B_CTR - 133.000 - Patrick Curtin
Covering KBOS, KBED, KLWM, KBVY, and KOWD Have Feedback? Please submit it here! https //forum.bvartcc.com/bvaportal/feedback/
BOS_CTR - 134.700 - Nathan Rankin
Boston Center Feedback? www.bvartcc.com/feedback

Traffic

Inbound:
Ident
Type
Name
ETA
Phase
JBU1194
A320
KH MKJP
Deplaning
KAP549
C402
MARK MAYO KBOS
18:52 Z
Cruse
DAL1554
A20N
Dan
18:50 Z
Climb
DAL2626
B738
RANDY GIROUARD KBOS
Boarding
UAL602
B738
Rob Contreras KEWR
Boarding
AAL1153
A320
Matthew Stoczko KPHL
Boarding
ACA1540
A320
Chloe LIMC
19:42 Z
Cruse
UPS66
B748
Evan Bazeley KBOS
19:27 Z
Cruse
FDX2710
MD11
Derek Hood KSNA
19:30 Z
Cruse
EIN135
A320
Dan EHAM
21:45 Z
Cruse
RZO225
A21N
Jose Candido LPPT
21:54 Z
Cruse
JBU474
A321
Boris Gromov UUWW
03:02 Z
Descent
DAL127
A339
Sadiq Ali EGKK
23:55 Z
Cruse
VIR2
A339
Chris Peoples KLAX
05:05 Z
Descent

Outbound:
Ident
Type
Name
Destination
Phase
UAL4942
B737
Quentin Evrard KIAH
KPHL
Boarding
AAL960
A321
Ben DAO KORD
KPHL
Boarding
WJA615
B738
Jason Campbell CYYZ
CYYZ
Boarding
AAL690
B738
Aaron Jernigan KBOS
KPHL
Taxiing Out
WEN3603
DH8D
Justin Whetstone KDTW
CYYZ
Taxiing Out
N215BR
C414
Max Pollack KPNE
KASH
Boarding
UAE238
B77W
Karthik Mereddy KIAD
OMDB
Climb